Time;durP1;ratioP1;P1;durP2;ratioP2;P2;SDS_P1;SDS_P2;PMS_P1;PMS_P2;Temp;Humidity;BMP_temperature;BMP_pressure;BME280_temperature;BME280_humidity;BME280_pressure;Samples;Min_cycle;Max_cycle;Signal;HPM_P1;HPM_P2
2021/03/24 00:00:01;;;;;;;58.53;32.22;;;;;;;3.51;74.66;102286.84;5094846;28;20028;-70
2021/03/24 00:02:26;;;;;;;56.80;31.27;;;;;;;3.48;74.65;102288.47;5094652;28;20028;-70
2021/03/24 00:04:51;;;;;;;54.53;30.80;;;;;;;3.42;74.63;102287.22;5096042;28;20030;-70
2021/03/24 00:07:17;;;;;;;59.08;33.45;;;;;;;3.38;75.26;102286.16;5094782;28;20043;-71
2021/03/24 00:09:42;;;;;;;58.90;31.23;;;;;;;3.27;74.52;102290.75;5095489;28;20471;-71
2021/03/24 00:12:08;;;;;;;55.85;30.45;;;;;;;3.11;74.90;102282.88;5094120;28;20077;-71
2021/03/24 00:14:34;;;;;;;56.85;30.98;;;;;;;3.04;75.11;102272.88;5095348;28;20036;-70
2021/03/24 00:16:59;;;;;;;57.45;32.35;;;;;;;3.05;75.80;102275.56;5075480;28;20040;-70
2021/03/24 00:19:25;;;;;;;55.55;29.95;;;;;;;2.97;76.69;102280.34;5095464;28;20058;-70
2021/03/24 00:21:50;;;;;;;59.78;32.47;;;;;;;3.03;77.12;102276.28;5095575;28;20071;-71
2021/03/24 00:24:15;;;;;;;63.55;34.67;;;;;;;3.10;77.40;102278.44;5093644;28;20055;-70
2021/03/24 00:26:40;;;;;;;61.15;33.60;;;;;;;3.14;77.72;102273.47;5094967;28;20035;-71
2021/03/24 00:29:06;;;;;;;59.95;32.13;;;;;;;3.06;76.35;102277.38;5094599;28;20074;-71
2021/03/24 00:31:31;;;;;;;58.38;32.35;;;;;;;2.99;77.43;102275.22;5094975;28;20051;-70
2021/03/24 00:33:56;;;;;;;57.65;30.98;;;;;;;2.97;76.98;102272.53;5094307;28;20036;-70
2021/03/24 00:36:22;;;;;;;56.05;30.92;;;;;;;2.97;76.51;102269.91;5094598;28;20077;-71
2021/03/24 00:38:47;;;;;;;60.33;32.28;;;;;;;2.93;77.23;102269.66;5094084;28;20032;-70
2021/03/24 00:41:13;;;;;;;57.53;31.77;;;;;;;2.84;76.74;102270.00;5093955;28;20494;-70
2021/03/24 00:43:38;;;;;;;56.72;30.42;;;;;;;2.78;76.81;102270.56;5095457;28;20024;-70
2021/03/24 00:46:03;;;;;;;57.65;30.52;;;;;;;2.71;76.32;102264.84;5094806;28;20024;-70
2021/03/24 00:48:33;;;;;;;58.17;31.05;;;;;;;2.66;76.02;102269.81;5094717;28;20439;-70
2021/03/24 00:50:59;;;;;;;55.90;31.15;;;;;;;2.60;76.31;102270.34;5090062;28;20443;-70
2021/03/24 00:53:25;;;;;;;57.38;29.98;;;;;;;2.55;76.60;102273.47;5094911;28;20024;-70
2021/03/24 00:55:51;;;;;;;56.42;30.35;;;;;;;2.50;76.73;102267.09;5093771;28;20031;-70
2021/03/24 00:58:18;;;;;;;59.15;32.05;;;;;;;2.48;76.98;102267.00;5094914;28;20087;-70
2021/03/24 01:00:44;;;;;;;55.67;30.90;;;;;;;2.50;77.31;102265.38;5093868;28;20476;-70
2021/03/24 01:03:10;;;;;;;58.58;31.75;;;;;;;2.52;77.49;102255.94;5093957;28;20028;-70
2021/03/24 01:05:36;;;;;;;57.38;31.27;;;;;;;2.54;77.01;102258.66;5092092;28;20020;-71
2021/03/24 01:08:31;;;;;;;57.20;30.35;;;;;;;2.51;76.22;102243.69;5094514;28;20057;-70
2021/03/24 01:10:57;;;;;;;59.13;30.20;;;;;;;2.46;76.59;102254.66;4996257;28;20041;-71
2021/03/24 01:13:23;;;;;;;57.90;30.42;;;;;;;2.46;76.78;102250.34;4996979;28;20026;-70
2021/03/24 01:15:49;;;;;;;50.90;28.70;;;;;;;2.44;76.76;102246.75;4999400;28;20040;-70
2021/03/24 01:18:16;;;;;;;56.28;29.67;;;;;;;2.42;77.53;102236.22;4995987;28;20101;-70
2021/03/24 01:20:44;;;;;;;51.28;28.52;;;;;;;2.41;77.04;102242.25;4999311;28;20100;-70
2021/03/24 01:23:10;;;;;;;52.58;28.13;;;;;;;2.32;76.94;102244.31;4997016;28;20065;-71
2021/03/24 01:25:35;;;;;;;53.92;29.48;;;;;;;2.25;77.36;102240.41;4999345;28;20029;-70
2021/03/24 01:28:04;;;;;;;54.53;29.65;;;;;;;2.20;77.30;102247.06;4996986;28;20050;-70
2021/03/24 01:30:31;;;;;;;54.72;28.98;;;;;;;2.15;76.79;102239.78;4998436;28;20034;-70
2021/03/24 01:32:57;;;;;;;54.13;29.55;;;;;;;2.08;77.93;102236.81;5000648;28;20048;-69
2021/03/24 01:35:23;;;;;;;57.25;30.63;;;;;;;1.99;78.58;102236.22;4997152;28;20042;-70
2021/03/24 01:37:49;;;;;;;57.05;29.95;;;;;;;1.89;79.48;102229.56;5000441;28;20085;-70
2021/03/24 01:40:25;;;;;;;59.75;31.23;;;;;;;1.82;80.59;102231.66;4998676;28;20042;-70
2021/03/24 01:42:52;;;;;;;56.22;29.80;;;;;;;1.78;79.70;102227.06;5000508;28;20033;-70
2021/03/24 01:45:37;;;;;;;56.90;28.80;;;;;;;1.82;78.39;102226.44;5000252;28;20429;-71
2021/03/24 01:48:06;;;;;;;58.33;31.38;;;;;;;1.85;80.65;102222.34;5074022;28;20048;-70
2021/03/24 01:50:36;;;;;;;66.28;34.67;;;;;;;1.83;81.80;102234.38;5093733;28;20430;-70
2021/03/24 01:53:02;;;;;;;63.60;33.45;;;;;;;1.83;82.43;102230.88;5089172;28;20478;-70
2021/03/24 01:55:28;;;;;;;58.08;31.67;;;;;;;1.84;81.34;102232.69;5093406;28;20059;-70
2021/03/24 01:57:54;;;;;;;71.75;36.70;;;;;;;1.87;83.20;102235.47;5092852;28;20043;-70
2021/03/24 02:00:27;;;;;;;59.25;31.17;;;;;;;1.78;81.16;102240.09;5093578;28;20024;-70
2021/03/24 02:02:52;;;;;;;61.08;32.75;;;;;;;1.76;82.03;102242.63;5092511;28;20020;-70
2021/03/24 02:05:18;;;;;;;59.75;32.08;;;;;;;1.79;81.85;102235.00;5094354;28;20035;-70
2021/03/24 02:08:14;;;;;;;64.38;32.80;;;;;;;1.84;81.19;102235.28;5091961;28;20383;-71
2021/03/24 02:10:47;;;;;;;63.92;32.90;;;;;;;1.91;83.06;102227.03;5090206;28;20040;-70
2021/03/24 02:13:33;;;;;;;65.57;34.95;;;;;;;1.98;82.46;102229.22;5092252;28;20064;-70
2021/03/24 02:16:13;;;;;;;65.18;33.40;;;;;;;2.01;82.55;102232.00;5092731;28;20063;-70
2021/03/24 02:18:39;;;;;;;59.90;31.52;;;;;;;1.96;81.12;102233.41;5090474;28;20039;-70
2021/03/24 02:21:15;;;;;;;57.53;30.73;;;;;;;1.88;80.48;102234.69;5093403;28;20028;-70
2021/03/24 02:23:40;;;;;;;57.78;30.75;;;;;;;1.81;80.15;102230.78;5090797;28;20738;-70
2021/03/24 02:26:23;;;;;;;53.42;29.40;;;;;;;1.78;79.74;102229.66;5092059;28;20020;-70
2021/03/24 02:28:51;;;;;;;59.97;32.30;;;;;;;1.78;81.50;102234.88;5093380;28;20043;-70
2021/03/24 02:31:19;;;;;;;55.92;29.42;;;;;;;1.74;80.83;102224.25;5093992;28;20135;-70
2021/03/24 02:33:48;;;;;;;72.00;38.20;;;;;;;1.81;83.99;102224.66;5091099;28;20072;-70
2021/03/24 02:36:17;;;;;;;62.50;32.20;;;;;;;1.76;82.48;102226.97;5092823;28;20078;-70
2021/03/24 02:38:45;;;;;;;66.57;35.70;;;;;;;1.81;84.05;102219.44;5092331;28;20028;-70
2021/03/24 02:41:12;;;;;;;56.22;29.77;;;;;;;1.74;82.17;102224.25;5093050;28;20028;-70
2021/03/24 02:43:40;;;;;;;64.80;33.95;;;;;;;1.79;83.94;102223.66;5090367;28;20028;-70
2021/03/24 02:46:07;;;;;;;58.45;30.92;;;;;;;1.72;81.98;102210.25;5091902;28;20089;-70
2021/03/24 02:48:36;;;;;;;59.55;32.05;;;;;;;1.67;82.52;102215.97;5092283;28;20182;-71
2021/03/24 02:51:05;;;;;;;59.65;31.88;;;;;;;1.63;82.29;102212.28;5092490;28;20028;-70
2021/03/24 02:53:32;;;;;;;60.20;31.73;;;;;;;1.65;82.60;102207.16;5091368;28;20034;-70
2021/03/24 02:56:00;;;;;;;58.05;30.38;;;;;;;1.62;81.90;102205.25;5092535;28;20589;-70
2021/03/24 02:58:26;;;;;;;54.92;29.52;;;;;;;1.54;80.87;102204.78;5091748;28;20659;-70
2021/03/24 03:00:52;;;;;;;55.33;30.20;;;;;;;1.51;81.68;102203.69;5091953;28;20099;-70
2021/03/24 03:03:23;;;;;;;57.47;30.08;;;;;;;1.45;81.49;102204.19;5090508;28;20047;-70
2021/03/24 03:05:50;;;;;;;66.38;35.00;;;;;;;1.48;84.68;102203.50;5092172;28;20073;-70
2021/03/24 03:08:26;;;;;;;66.75;34.22;;;;;;;1.44;84.41;102197.16;5092869;28;20034;-70
2021/03/24 03:10:59;;;;;;;69.85;36.22;;;;;;;1.38;85.48;102208.13;5091877;28;20034;-70
2021/03/24 03:13:24;;;;;;;;;;;;;;;1.45;80.93;102204.19;5092350;28;20016;-70
2021/03/24 03:16:07;;;;;;;80.28;39.20;;;;;;;1.68;86.04;102209.97;5090922;28;19927;-70
2021/03/24 03:18:42;;;;;;;;;;;;;;;1.72;81.39;102204.13;5095094;28;20069;-70
2021/03/24 03:21:17;;;;;;;78.60;38.38;;;;;;;1.79;86.74;102206.31;5091335;28;19916;-71
2021/03/24 03:23:45;;;;;;;82.10;40.67;;;;;;;1.84;88.37;102204.00;5089559;28;20046;-71
2021/03/24 03:26:16;;;;;;;84.25;40.40;;;;;;;1.90;nan;102192.22;5090397;28;20107;-71
2021/03/24 03:28:45;;;;;;;78.35;39.42;;;;;;;1.92;87.51;102194.91;5092099;28;20044;-70
2021/03/24 03:31:13;;;;;;;75.45;38.95;;;;;;;1.89;87.76;102198.25;5091243;28;20017;-70
2021/03/24 03:33:42;;;;;;;84.15;39.83;;;;;;;1.84;88.33;102185.75;5092150;28;20020;-70
2021/03/24 03:36:07;;;;;;;79.88;39.00;;;;;;;1.82;88.44;102184.72;5090778;28;20103;-70
2021/03/24 03:38:35;;;;;;;83.68;39.55;;;;;;;1.81;89.69;102193.38;5091473;28;20107;-70
2021/03/24 03:41:05;;;;;;;84.15;41.05;;;;;;;1.74;90.67;102187.75;5090943;28;20048;-70
2021/03/24 03:43:31;;;;;;;85.32;40.95;;;;;;;1.79;91.08;102185.47;5092640;28;20032;-70
2021/03/24 03:46:00;;;;;;;85.68;41.55;;;;;;;1.89;90.50;102197.34;5074483;28;20054;-70
2021/03/24 03:48:25;;;;;;;87.13;40.80;;;;;;;2.02;90.90;102189.44;5071798;28;20036;-71
2021/03/24 03:51:01;;;;;;;79.97;40.17;;;;;;;2.09;88.89;102191.63;5090278;28;20024;-70
2021/03/24 03:53:36;;;;;;;86.22;41.55;;;;;;;2.04;89.21;102193.06;5090486;28;20413;-70
2021/03/24 03:56:09;;;;;;;86.88;40.65;;;;;;;2.00;89.78;102190.19;5094078;28;20633;-70
2021/03/24 03:58:47;;;;;;;85.57;42.33;;;;;;;1.97;89.57;102185.69;5092080;28;20107;-70
2021/03/24 04:01:34;;;;;;;93.70;42.97;;;;;;;1.89;89.78;102190.44;5088833;28;20024;-69
2021/03/24 04:04:21;;;;;;;84.63;40.28;;;;;;;1.90;89.61;102191.31;5090623;28;20180;-70
2021/03/24 04:07:07;;;;;;;88.25;40.90;;;;;;;1.85;90.80;102182.31;5090092;28;20374;-70
2021/03/24 04:09:35;;;;;;;88.80;42.67;;;;;;;1.87;91.02;102189.41;5092838;28;20179;-70
2021/03/24 04:12:04;;;;;;;92.38;42.38;;;;;;;1.98;90.80;102187.47;5091056;28;20028;-71
2021/03/24 04:14:29;;;;;;;90.38;43.13;;;;;;;2.05;91.23;102184.44;5091497;28;20035;-70
2021/03/24 04:16:55;;;;;;;94.45;41.42;;;;;;;2.07;91.45;102188.03;5095177;28;20035;-70
2021/03/24 04:19:28;;;;;;;95.60;42.42;;;;;;;2.07;89.79;102177.59;5094893;28;20028;-70
2021/03/24 04:21:57;;;;;;;;;;;;;;;2.03;85.38;102180.81;5095563;28;20040;-71
2021/03/24 04:24:29;;;;;;;87.90;40.97;;;;;;;1.98;88.86;102171.84;5095245;28;20042;-70
2021/03/24 04:26:58;;;;;;;90.88;41.17;;;;;;;2.00;90.47;102179.75;5093865;28;20044;-71
2021/03/24 04:29:31;;;;;;;92.97;41.70;;;;;;;2.06;89.62;102172.28;5096029;28;20048;-70
2021/03/24 04:31:59;;;;;;;92.25;42.60;;;;;;;2.07;89.78;102177.59;5093699;28;20047;-70
2021/03/24 04:34:26;;;;;;;91.65;43.30;;;;;;;2.09;90.93;102181.19;5094356;28;20020;-69
2021/03/24 04:37:15;;;;;;;89.15;41.95;;;;;;;2.03;89.94;102183.44;5093880;28;20063;-71
2021/03/24 04:39:51;;;;;;;93.53;40.88;;;;;;;1.99;90.08;102184.03;5030523;28;20480;-70
2021/03/24 04:42:21;;;;;;;95.30;43.40;;;;;;;1.95;90.71;102187.25;5032028;28;20033;-70
2021/03/24 04:44:52;;;;;;;94.82;42.15;;;;;;;1.85;90.44;102193.66;5031527;28;20041;-71
2021/03/24 04:47:31;;;;;;;98.78;42.97;;;;;;;1.80;90.70;102197.66;5030875;28;20041;-70
2021/03/24 04:50:04;;;;;;;94.45;42.63;;;;;;;1.80;91.26;102202.00;5030996;28;20069;-70
2021/03/24 04:52:33;;;;;;;94.07;43.03;;;;;;;1.70;91.36;102196.22;5031165;28;20061;-71
2021/03/24 04:55:05;;;;;;;90.93;41.80;;;;;;;1.69;92.23;102199.63;5031219;28;20045;-71
2021/03/24 04:57:31;;;;;;;98.45;42.90;;;;;;;1.71;91.93;102198.00;5031348;28;20037;-71
2021/03/24 05:00:13;;;;;;;93.55;42.53;;;;;;;1.68;93.01;102208.25;5031214;28;20048;-70
2021/03/24 05:02:50;;;;;;;94.78;42.67;;;;;;;1.67;93.30;102201.22;5027242;28;20091;-70
2021/03/24 05:05:24;;;;;;;92.95;41.85;;;;;;;1.61;92.05;102194.75;5031113;28;20112;-70
2021/03/24 05:08:24;;;;;;;87.07;40.95;;;;;;;1.52;92.18;102201.16;5029857;28;20037;-70
2021/03/24 05:10:55;;;;;;;92.68;41.50;;;;;;;1.50;92.77;102201.88;5030882;28;20065;-70
2021/03/24 05:13:25;;;;;;;91.88;42.65;;;;;;;1.49;93.59;102205.31;5030855;28;20029;-70
2021/03/24 05:16:01;;;;;;;96.35;42.60;;;;;;;1.51;93.94;102206.28;5037839;28;20037;-70
2021/03/24 05:18:27;;;;;;;88.40;40.47;;;;;;;1.51;93.92;102203.69;5093623;28;20055;-70
2021/03/24 05:21:03;;;;;;;96.43;42.38;;;;;;;1.48;93.64;102209.59;5093492;28;20024;-71
2021/03/24 05:23:29;;;;;;;95.53;42.92;;;;;;;1.47;94.66;102201.69;5094452;28;20027;-71
2021/03/24 05:26:04;;;;;;;97.72;41.80;;;;;;;1.48;95.40;102208.72;5091943;28;20115;-70
2021/03/24 05:28:37;;;;;;;98.40;44.15;;;;;;;1.53;95.22;102208.19;5093435;28;20450;-70
2021/03/24 05:31:14;;;;;;;97.55;41.92;;;;;;;1.52;94.76;102208.09;5091257;28;20114;-71
2021/03/24 05:33:50;;;;;;;93.82;42.25;;;;;;;1.46;95.08;102203.41;5093504;28;20036;-70
2021/03/24 05:36:22;;;;;;;94.00;41.40;;;;;;;1.42;94.51;102203.13;5092851;28;20485;-71
2021/03/24 05:38:50;;;;;;;98.10;44.45;;;;;;;1.37;95.48;102206.31;5092346;28;20028;-71
2021/03/24 05:41:44;;;;;;;93.28;43.05;;;;;;;1.36;95.40;102208.84;5093185;28;20039;-70
2021/03/24 05:44:37;;;;;;;98.32;43.17;;;;;;;1.33;97.18;102206.03;5092175;28;20039;-71
2021/03/24 05:47:21;;;;;;;102.40;43.47;;;;;;;1.34;97.41;102211.34;5092441;28;20032;-70
2021/03/24 05:50:05;;;;;;;94.40;41.80;;;;;;;1.34;98.46;102213.94;5093291;28;20474;-70
2021/03/24 05:52:54;;;;;;;98.93;42.78;;;;;;;1.34;97.95;102226.06;5095456;28;20031;-71
2021/03/24 05:55:29;;;;;;;93.55;40.88;;;;;;;1.34;97.09;102215.63;5092831;28;20110;-71
2021/03/24 05:58:26;;;;;;;91.78;41.78;;;;;;;1.33;96.54;102213.84;5092411;28;20114;-70
2021/03/24 06:01:16;;;;;;;95.55;41.67;;;;;;;1.35;96.97;102212.25;5018010;28;20033;-71
2021/03/24 06:04:15;;;;;;;96.72;41.40;;;;;;;1.35;96.79;102207.91;5015622;28;20044;-70
2021/03/24 06:07:01;;;;;;;96.25;40.22;;;;;;;1.41;96.33;102214.34;5011974;28;20034;-71
2021/03/24 06:09:45;;;;;;;100.85;42.88;;;;;;;1.45;96.65;102208.50;5017724;28;20025;-71
2021/03/24 06:12:17;;;;;;;98.40;43.40;;;;;;;1.54;96.39;102214.28;5012879;28;20030;-70
2021/03/24 06:14:45;;;;;;;104.32;44.35;;;;;;;1.65;95.49;102212.38;5017403;28;20042;-70
2021/03/24 06:17:32;;;;;;;99.18;42.17;;;;;;;1.77;95.75;102214.84;5014388;28;20044;-70
2021/03/24 06:20:25;;;;;;;101.03;44.05;;;;;;;1.87;94.38;102214.59;5011078;28;20050;-71
2021/03/24 06:22:50;;;;;;;;;;;;;;;1.92;89.69;102214.09;5013012;28;20029;-71
2021/03/24 06:25:35;;;;;;;95.47;41.22;;;;;;;2.02;92.64;102206.81;5013442;28;20418;-69
2021/03/24 06:28:12;;;;;;;93.20;40.28;;;;;;;2.10;91.28;102205.59;5010394;28;20072;-70
2021/03/24 06:30:46;;;;;;;100.70;43.70;;;;;;;2.15;93.67;102206.75;5013547;28;20100;-70
2021/03/24 06:33:14;;;;;;;98.60;43.83;;;;;;;2.22;91.87;102208.03;5009310;28;20037;-71
2021/03/24 06:35:57;;;;;;;95.32;42.42;;;;;;;2.25;92.26;102200.38;5014263;28;20065;-70
2021/03/24 06:38:44;;;;;;;99.25;43.78;;;;;;;2.32;90.97;102204.28;5071447;28;20044;-70
2021/03/24 06:41:43;;;;;;;95.38;43.17;;;;;;;2.42;89.24;102204.91;5091388;28;20081;-70
2021/03/24 06:44:46;;;;;;;98.30;43.63;;;;;;;2.57;89.02;102217.06;5092829;28;20073;-69
2021/03/24 06:47:39;;;;;;;91.30;41.97;;;;;;;2.71;87.96;102210.00;5089706;28;20438;-70
2021/03/24 06:50:28;;;;;;;89.63;40.20;;;;;;;2.81;87.17;102211.44;5092953;28;20032;-70
2021/03/24 06:53:36;;;;;;;80.82;34.13;;;;;;;2.96;86.39;102207.13;5093736;28;20020;-70
2021/03/24 06:56:10;;;;;;;90.55;40.63;;;;;;;3.00;87.17;102211.72;5092115;28;20360;-71
2021/03/24 06:58:50;;;;;;;94.05;42.30;;;;;;;3.11;86.83;102218.41;5091904;28;20110;-72
2021/03/24 07:01:42;;;;;;;99.03;44.38;;;;;;;3.21;85.58;102214.63;5090869;28;20035;-72
2021/03/24 07:04:32;;;;;;;87.60;40.85;;;;;;;3.28;84.95;102211.53;5088719;28;20040;-72
2021/03/24 07:07:21;;;;;;;89.10;41.67;;;;;;;3.41;85.11;102207.91;5090159;28;20032;-72
2021/03/24 07:10:11;;;;;;;87.18;40.38;;;;;;;3.47;84.77;102208.22;5092789;28;20028;-71
2021/03/24 07:12:57;;;;;;;90.13;40.45;;;;;;;3.59;83.35;102207.09;5091499;28;20417;-69
2021/03/24 07:15:27;;;;;;;90.75;42.08;;;;;;;3.67;82.84;102206.72;5090100;28;20030;-71
2021/03/24 07:17:55;;;;;;;90.43;38.95;;;;;;;3.73;83.25;102206.16;5090604;28;20030;-70
2021/03/24 07:20:58;;;;;;;85.53;39.70;;;;;;;3.81;82.44;102204.81;5091180;28;20103;-71
2021/03/24 07:23:36;;;;;;;90.15;41.38;;;;;;;3.92;81.98;102208.03;5090189;28;20032;-71
2021/03/24 07:26:03;;;;;;;88.00;40.55;;;;;;;4.04;80.90;102212.13;5093192;28;20036;-72
2021/03/24 07:29:01;;;;;;;83.68;40.95;;;;;;;4.14;80.92;102203.94;5090341;28;20044;-71
2021/03/24 07:31:57;;;;;;;88.35;41.67;;;;;;;4.23;80.59;102198.28;4984466;28;20034;-72
2021/03/24 07:35:07;;;;;;;82.03;39.10;;;;;;;4.34;80.10;102211.09;5000017;28;20405;-73
2021/03/24 07:37:35;;;;;;;84.30;39.53;;;;;;;4.49;79.70;102205.75;4932443;29;20047;-73
2021/03/24 07:40:39;;;;;;;84.70;39.20;;;;;;;4.65;79.74;102215.28;4930717;29;20052;-73
2021/03/24 07:43:29;;;;;;;76.32;40.08;;;;;;;5.00;78.09;102213.50;4933100;29;20115;-74
2021/03/24 07:46:25;;;;;;;81.25;38.38;;;;;;;5.12;78.06;102213.19;4931010;29;20126;-67
2021/03/24 07:48:58;;;;;;;73.47;37.30;;;;;;;5.25;76.83;102204.19;4930886;29;20047;-73
2021/03/24 07:51:52;;;;;;;78.90;38.65;;;;;;;5.45;77.30;102206.91;4934163;29;20047;-74
2021/03/24 07:54:31;;;;;;;75.07;37.72;;;;;;;5.56;75.46;102206.56;4937541;29;20135;-75
2021/03/24 07:57:05;;;;;;;76.00;36.65;;;;;;;5.75;74.87;102199.50;4934970;29;20029;-72
2021/03/24 08:00:04;;;;;;;77.20;37.83;;;;;;;5.99;75.79;102204.13;4935281;29;20115;-72
2021/03/24 08:02:47;;;;;;;75.22;36.15;;;;;;;6.17;74.51;102196.16;4937705;29;20608;-73
2021/03/24 08:05:44;;;;;;;74.43;37.60;;;;;;;6.28;73.36;102197.53;4935982;29;20442;-73
2021/03/24 08:08:29;;;;;;;75.47;35.47;;;;;;;6.39;73.22;102188.41;4913073;29;20054;-71
2021/03/24 08:11:13;;;;;;;75.97;36.28;;;;;;;6.59;72.84;102189.22;4940765;29;20384;-71
2021/03/24 08:14:00;;;;;;;69.13;35.63;;;;;;;6.78;69.98;102190.00;4950213;28;20078;-71
2021/03/24 08:16:34;;;;;;;71.93;36.22;;;;;;;6.91;70.33;102189.66;4991279;28;20030;-74
2021/03/24 08:19:43;;;;;;;73.30;38.08;;;;;;;7.10;70.37;102195.66;4992450;28;20046;-71
2021/03/24 08:22:21;;;;;;;63.17;30.45;;;;;;;7.20;68.71;102186.44;4991255;28;20037;-75
2021/03/24 08:24:52;;;;;;;63.50;31.95;;;;;;;7.27;67.54;102199.00;4995163;28;20596;-73
2021/03/24 08:27:25;;;;;;;66.28;34.80;;;;;;;7.40;68.23;102190.72;4992920;28;20038;-71
2021/03/24 08:30:19;;;;;;;64.90;34.70;;;;;;;7.66;67.45;102196.09;4991837;28;20114;-74
2021/03/24 08:33:06;;;;;;;66.75;33.90;;;;;;;8.02;67.03;102193.94;4916454;29;20444;-72
2021/03/24 08:36:01;;;;;;;65.93;33.92;;;;;;;8.23;67.16;102197.25;4915470;29;20040;-70
2021/03/24 08:38:29;;;;;;;63.75;32.10;;;;;;;8.46;65.02;102190.19;4915291;29;20051;-74
2021/03/24 08:41:21;;;;;;;66.03;35.13;;;;;;;8.62;63.94;102191.63;4915245;29;20039;-71
2021/03/24 08:43:56;;;;;;;68.18;34.70;;;;;;;8.72;64.19;102194.63;4915301;29;20517;-73
2021/03/24 08:46:43;;;;;;;60.70;32.38;;;;;;;8.83;63.55;102192.34;4971877;28;20398;-73
2021/03/24 08:49:12;;;;;;;62.97;34.15;;;;;;;8.65;63.27;102187.38;4973549;28;20118;-73
2021/03/24 08:51:48;;;;;;;63.55;35.05;;;;;;;8.87;62.38;102185.44;4972653;28;20030;-73
2021/03/24 08:54:19;;;;;;;61.63;33.47;;;;;;;9.21;62.23;102184.75;4972194;28;20458;-73
2021/03/24 08:56:56;;;;;;;60.70;31.67;;;;;;;9.48;60.27;102172.34;4970739;28;20039;-73
2021/03/24 08:59:39;;;;;;;64.30;32.30;;;;;;;9.77;60.85;102171.47;4973555;28;20089;-73
2021/03/24 09:02:41;;;;;;;61.33;33.88;;;;;;;10.08;59.28;102176.75;4973501;28;20030;-72
2021/03/24 09:05:16;;;;;;;60.50;33.30;;;;;;;10.36;59.29;102174.88;4974218;28;20039;-73
2021/03/24 09:07:54;;;;;;;60.67;32.75;;;;;;;10.76;58.01;102171.50;4972055;28;20026;-73
2021/03/24 09:10:50;;;;;;;58.72;32.60;;;;;;;11.21;55.44;102176.94;5060569;28;20052;-73
2021/03/24 09:13:32;;;;;;;59.78;31.70;;;;;;;11.55;54.82;102170.66;5095876;28;20020;-73
2021/03/24 09:16:25;;;;;;;58.03;31.77;;;;;;;11.71;56.07;102171.88;5093845;28;20453;-73
2021/03/24 09:19:05;;;;;;;57.67;33.17;;;;;;;11.83;54.85;102169.44;5093588;28;20124;-74
2021/03/24 09:21:43;;;;;;;59.97;32.28;;;;;;;12.00;55.53;102176.91;5092001;28;20024;-74
2021/03/24 09:24:39;;;;;;;59.58;31.67;;;;;;;12.31;54.53;102172.16;5092600;28;20085;-72
2021/03/24 09:27:23;;;;;;;57.33;32.08;;;;;;;12.56;53.35;102174.38;5092702;28;20036;-69
2021/03/24 09:30:21;;;;;;;54.20;28.08;;;;;;;13.18;51.56;102162.09;5094620;28;20040;-73
2021/03/24 09:33:03;;;;;;;55.72;31.00;;;;;;;13.55;50.21;102159.06;5092422;28;20042;-73
2021/03/24 09:35:39;;;;;;;54.45;29.80;;;;;;;13.93;49.64;102172.81;5093147;28;20043;-73
2021/03/24 09:38:19;;;;;;;58.53;32.58;;;;;;;14.16;49.32;102163.34;5093390;28;20024;-73
2021/03/24 09:41:06;;;;;;;52.97;29.23;;;;;;;14.44;48.47;102170.69;5092493;28;20478;-73
2021/03/24 09:43:36;;;;;;;53.72;30.50;;;;;;;14.21;45.96;102167.81;5093638;28;20040;-73
2021/03/24 09:46:22;;;;;;;54.70;30.45;;;;;;;14.66;47.61;102162.94;5091413;28;20559;-73
2021/03/24 09:48:54;;;;;;;53.25;29.90;;;;;;;14.78;46.33;102155.06;5093757;28;20050;-73
2021/03/24 09:51:40;;;;;;;;;;;;;;;15.07;46.89;102158.78;5093218;28;20081;-75
2021/03/24 09:54:22;;;;;;;51.13;28.60;;;;;;;15.37;45.64;102165.19;5094054;28;19914;-73
2021/03/24 09:57:10;;;;;;;53.37;30.43;;;;;;;15.31;45.11;102158.94;5091617;28;20034;-73
2021/03/24 09:59:46;;;;;;;51.72;25.60;;;;;;;15.41;43.88;102159.00;5092996;28;20365;-73
2021/03/24 10:02:42;;;;;;;50.95;29.17;;;;;;;15.64;44.90;102154.66;5092523;28;20028;-69
2021/03/24 10:05:13;;;;;;;51.38;28.55;;;;;;;16.36;41.70;102161.97;4992394;28;20042;-73
2021/03/24 10:07:57;;;;;;;50.88;27.67;;;;;;;16.82;41.40;102152.19;4986941;28;20141;-73
2021/03/24 10:10:28;;;;;;;50.63;28.17;;;;;;;16.51;40.76;102153.13;4991281;28;20042;-72
2021/03/24 10:12:57;;;;;;;48.13;26.55;;;;;;;16.77;39.73;102137.97;4989891;28;20062;-69
2021/03/24 10:15:39;;;;;;;46.45;26.80;;;;;;;16.75;39.54;102143.31;4990546;28;20171;-68
2021/03/24 10:18:24;;;;;;;47.08;23.98;;;;;;;16.66;39.68;102133.53;4990920;28;20037;-69
2021/03/24 10:20:50;;;;;;;49.40;25.25;;;;;;;16.81;39.71;102143.31;4988263;28;20461;-69
2021/03/24 10:23:27;;;;;;;45.30;22.25;;;;;;;16.78;38.83;102142.44;4990843;28;20133;-69
2021/03/24 10:26:08;;;;;;;44.38;23.42;;;;;;;16.44;38.57;102139.75;4987407;28;20082;-69
2021/03/24 10:28:47;;;;;;;46.63;24.92;;;;;;;16.73;39.04;102135.31;4990877;28;20057;-73
2021/03/24 10:31:19;;;;;;;48.65;25.38;;;;;;;16.88;38.31;102139.78;4989985;28;20037;-71
2021/03/24 10:33:57;;;;;;;48.40;24.98;;;;;;;17.27;39.94;102126.34;4989600;28;20421;-72
2021/03/24 10:36:35;;;;;;;47.60;24.00;;;;;;;18.14;37.27;102134.84;4991290;28;20048;-68
2021/03/24 10:39:19;;;;;;;44.65;23.20;;;;;;;18.06;37.62;102124.19;4989085;28;20078;-66
2021/03/24 10:41:51;;;;;;;43.05;22.55;;;;;;;18.07;35.99;102130.41;5025151;28;20115;-68
2021/03/24 10:44:22;;;;;;;42.95;22.50;;;;;;;18.09;35.69;102123.28;5069466;28;20467;-69
2021/03/24 10:47:13;;;;;;;42.70;22.92;;;;;;;18.20;36.03;102115.19;5072426;28;20052;-68
2021/03/24 10:50:15;;;;;;;43.53;23.33;;;;;;;18.10;36.00;102131.31;5068870;28;20029;-73
2021/03/24 10:53:06;;;;;;;42.35;22.75;;;;;;;18.43;34.56;102115.88;5075354;28;20108;-73
2021/03/24 10:55:34;;;;;;;39.67;21.45;;;;;;;18.40;36.09;102107.00;5071767;28;20020;-72
2021/03/24 10:58:17;;;;;;;38.75;19.55;;;;;;;18.23;34.86;102117.81;5072008;28;20091;-73
2021/03/24 11:00:49;;;;;;;39.45;19.63;;;;;;;18.28;34.99;102116.03;5073664;28;20024;-76
2021/03/24 11:03:26;;;;;;;35.67;19.10;;;;;;;18.41;34.54;102120.38;5076401;28;20028;-73
2021/03/24 11:06:01;;;;;;;37.25;20.05;;;;;;;18.56;35.40;102115.78;5070876;28;20033;-75
2021/03/24 11:09:07;;;;;;;38.67;20.98;;;;;;;17.90;34.67;102114.50;5072386;28;20028;-75
2021/03/24 11:11:48;;;;;;;40.33;21.98;;;;;;;18.16;34.93;102118.78;5070281;28;20170;-75
2021/03/24 11:14:21;;;;;;;37.67;21.88;;;;;;;17.89;35.94;102113.56;5073065;28;20087;-75
2021/03/24 11:16:52;;;;;;;40.22;21.67;;;;;;;18.39;35.97;102114.16;5068691;28;20103;-74
2021/03/24 11:19:23;;;;;;;38.35;20.98;;;;;;;19.04;34.34;102121.59;5072405;28;20464;-74
2021/03/24 11:22:01;;;;;;;39.15;20.25;;;;;;;19.37;32.50;102114.06;5068080;28;20048;-75
2021/03/24 11:24:50;;;;;;;40.10;21.55;;;;;;;19.50;34.61;102113.00;5069702;28;20024;-75
2021/03/24 11:27:20;;;;;;;38.92;22.90;;;;;;;20.03;32.35;102105.13;5070707;28;20024;-74
2021/03/24 11:30:11;;;;;;;39.50;22.95;;;;;;;20.36;32.27;102115.38;5068473;28;20028;-74
2021/03/24 11:32:45;;;;;;;41.05;23.25;;;;;;;19.70;32.88;102095.75;5070090;28;20483;-75
2021/03/24 11:35:20;;;;;;;40.88;23.45;;;;;;;19.12;34.36;102100.97;5071300;28;20107;-75
2021/03/24 11:37:56;;;;;;;39.95;23.00;;;;;;;18.93;34.92;102099.38;5069846;28;20062;-71
2021/03/24 11:40:32;;;;;;;40.08;22.45;;;;;;;19.41;33.68;102096.16;5072569;28;20098;-74
2021/03/24 11:43:06;;;;;;;40.35;22.83;;;;;;;19.60;34.49;102096.78;5068951;28;20136;-75
2021/03/24 11:45:33;;;;;;;37.38;19.55;;;;;;;19.48;32.69;102098.75;5071603;28;20506;-75
2021/03/24 11:48:42;;;;;;;39.60;21.80;;;;;;;19.20;34.35;102089.28;5070647;28;20040;-75
2021/03/24 11:51:35;;;;;;;38.40;21.25;;;;;;;21.57;31.37;102079.09;4995464;28;20058;-75
2021/03/24 11:54:00;;;;;;;;;;;;;;;22.56;28.75;102092.88;4994385;28;20028;-75
2021/03/24 11:56:51;;;;;;;40.22;23.05;;;;;;;21.94;29.16;102084.50;4993947;28;20361;-72
2021/03/24 11:59:31;;;;;;;39.58;22.92;;;;;;;21.94;28.62;102083.59;4996276;28;20034;-74